createdAt,value
2019-03-30T00:00:29.784Z,95.20
2019-03-30T00:03:02.183Z,95.30
2019-03-30T00:05:33.178Z,95.30
2019-03-30T00:08:05.098Z,95.30
2019-03-30T00:10:36.010Z,95.40
2019-03-30T00:13:06.856Z,95.50
2019-03-30T00:15:37.820Z,95.50
2019-03-30T00:18:08.694Z,95.60
2019-03-30T00:20:39.581Z,95.60
2019-03-30T00:23:10.412Z,95.70
2019-03-30T00:25:41.396Z,95.70
2019-03-30T00:28:13.262Z,95.70
2019-03-30T00:30:44.150Z,95.70
2019-03-30T00:33:15.645Z,95.70
2019-03-30T00:35:47.429Z,95.70
2019-03-30T00:38:18.346Z,95.70
2019-03-30T00:40:49.198Z,95.70
2019-03-30T00:43:20.074Z,95.80
2019-03-30T00:45:50.969Z,95.70
2019-03-30T00:48:21.873Z,95.70
2019-03-30T00:50:52.860Z,95.70
2019-03-30T00:53:23.721Z,95.60
2019-03-30T00:55:54.599Z,95.60
2019-03-30T00:58:25.764Z,95.60
2019-03-30T01:00:56.795Z,95.60
2019-03-30T01:03:29.843Z,95.50
2019-03-30T01:06:00.790Z,95.50
2019-03-30T01:08:31.705Z,95.40
2019-03-30T01:11:02.675Z,95.40
2019-03-30T01:13:33.640Z,95.40
2019-03-30T01:16:04.693Z,95.40
2019-03-30T01:18:35.677Z,95.40
2019-03-30T01:21:06.596Z,95.60
2019-03-30T01:23:37.485Z,95.20
2019-03-30T01:26:08.434Z,95.20
2019-03-30T01:28:39.422Z,95.20
2019-03-30T01:31:10.611Z,95.20
2019-03-30T01:33:42.680Z,95.10
2019-03-30T01:36:15.462Z,95.00
2019-03-30T01:38:46.353Z,94.90
2019-03-30T01:41:17.208Z,94.90
2019-03-30T01:43:48.002Z,94.90
2019-03-30T01:46:18.911Z,94.80
2019-03-30T01:48:49.775Z,94.70
2019-03-30T01:51:20.843Z,94.70
2019-03-30T01:53:51.742Z,94.70
2019-03-30T01:56:22.647Z,94.80
2019-03-30T01:58:53.571Z,94.80
2019-03-30T02:01:24.488Z,94.70
2019-03-30T02:03:56.755Z,94.70
2019-03-30T02:06:27.711Z,94.70
2019-03-30T02:08:59.625Z,94.50
2019-03-30T02:11:30.585Z,94.50
2019-03-30T02:14:01.400Z,94.60
2019-03-30T02:16:32.642Z,94.50
2019-03-30T02:19:03.509Z,94.40
2019-03-30T02:21:34.420Z,94.40
2019-03-30T02:24:05.315Z,94.30
2019-03-30T02:26:36.175Z,94.30
2019-03-30T02:29:07.088Z,94.30
2019-03-30T02:31:37.983Z,94.20
2019-03-30T02:34:09.317Z,94.20
2019-03-30T02:36:40.213Z,94.10
2019-03-30T02:39:11.048Z,94.00
2019-03-30T02:41:41.948Z,94.10
2019-03-30T02:44:12.846Z,94.10
2019-03-30T02:46:43.726Z,94.10
2019-03-30T02:49:14.523Z,94.10
2019-03-30T02:51:45.434Z,94.00
2019-03-30T02:54:16.418Z,94.00
2019-03-30T02:56:47.262Z,93.90
2019-03-30T02:59:18.064Z,93.90
2019-03-30T03:01:48.943Z,93.90
2019-03-30T03:04:19.873Z,93.90
2019-03-30T03:06:50.717Z,93.90
2019-03-30T03:09:21.601Z,94.00
2019-03-30T03:11:52.479Z,94.00
2019-03-30T03:14:23.405Z,94.00
2019-03-30T03:16:54.234Z,94.00
2019-03-30T03:19:25.119Z,93.90
2019-03-30T03:21:56.021Z,94.00
2019-03-30T03:24:26.923Z,94.00
2019-03-30T03:26:57.832Z,94.00
2019-03-30T03:29:28.732Z,94.00
2019-03-30T03:31:59.686Z,94.00
2019-03-30T03:34:31.906Z,94.00
2019-03-30T03:37:03.079Z,94.00
2019-03-30T03:39:33.957Z,93.90
2019-03-30T03:42:04.866Z,93.80
2019-03-30T03:44:35.729Z,93.80
2019-03-30T03:47:06.656Z,93.80
2019-03-30T03:49:37.565Z,93.80
2019-03-30T03:52:08.757Z,93.90
2019-03-30T03:54:39.674Z,93.90
2019-03-30T03:57:13.468Z,93.90
2019-03-30T03:59:44.650Z,93.90
2019-03-30T04:02:17.841Z,93.90
2019-03-30T04:04:50.430Z,94.00
2019-03-30T04:07:23.710Z,94.00
2019-03-30T04:09:57.610Z,94.30
2019-03-30T04:12:29.384Z,94.00
2019-03-30T04:15:03.561Z,93.80
2019-03-30T04:17:35.629Z,93.70
2019-03-30T04:20:07.063Z,93.70
2019-03-30T04:22:37.930Z,93.70
2019-03-30T04:25:08.893Z,93.70
2019-03-30T04:27:39.813Z,93.70
2019-03-30T04:30:10.664Z,93.70
2019-03-30T04:32:41.630Z,93.80
2019-03-30T04:35:12.594Z,93.70
2019-03-30T04:37:43.425Z,93.70
2019-03-30T04:40:14.297Z,93.70
2019-03-30T04:42:45.244Z,93.70
2019-03-30T04:45:16.033Z,93.60
2019-03-30T04:47:48.022Z,93.60
2019-03-30T04:50:18.929Z,93.60
2019-03-30T04:52:50.327Z,93.60
2019-03-30T04:55:21.243Z,93.40
2019-03-30T04:57:52.182Z,93.50
2019-03-30T05:00:23.013Z,93.30
2019-03-30T05:02:54.019Z,93.30
2019-03-30T05:05:25.369Z,93.30
2019-03-30T05:07:56.301Z,93.30
2019-03-30T05:10:27.191Z,93.20
2019-03-30T05:12:58.053Z,93.10
2019-03-30T05:15:28.990Z,93.10
2019-03-30T05:17:59.901Z,93.10
2019-03-30T05:20:30.833Z,93.10
2019-03-30T05:23:01.733Z,92.90
2019-03-30T05:25:32.609Z,92.90
2019-03-30T05:28:03.853Z,92.90
2019-03-30T05:30:34.671Z,92.90
2019-03-30T05:33:06.409Z,92.80
2019-03-30T05:35:37.505Z,92.60
2019-03-30T05:38:08.375Z,92.40
2019-03-30T05:40:39.287Z,92.40
2019-03-30T05:43:10.163Z,92.50
2019-03-30T05:45:41.085Z,92.50
2019-03-30T05:48:12.009Z,92.40
2019-03-30T05:50:42.958Z,92.70
2019-03-30T05:53:13.831Z,92.30
2019-03-30T05:55:44.725Z,92.10
2019-03-30T05:58:15.639Z,92.10
2019-03-30T06:00:46.574Z,92.00
2019-03-30T06:03:17.437Z,92.10
2019-03-30T06:05:48.660Z,91.90
2019-03-30T06:08:20.624Z,91.60
2019-03-30T06:10:51.501Z,91.50
2019-03-30T06:13:22.363Z,91.40
2019-03-30T06:15:53.255Z,91.40
2019-03-30T06:18:24.165Z,91.10
2019-03-30T06:20:55.038Z,90.90
2019-03-30T06:23:25.887Z,90.80
2019-03-30T06:25:56.855Z,90.40
2019-03-30T06:28:28.801Z,90.60
2019-03-30T06:31:00.115Z,90.60
2019-03-30T06:33:30.963Z,90.50
2019-03-30T06:36:02.525Z,90.40
2019-03-30T06:38:33.484Z,90.40
2019-03-30T06:41:04.441Z,90.50
2019-03-30T06:43:35.412Z,90.00
2019-03-30T06:46:06.311Z,89.90
2019-03-30T06:48:37.215Z,89.60
2019-03-30T06:51:08.061Z,89.40
2019-03-30T06:53:38.888Z,88.70
2019-03-30T06:56:09.764Z,88.60
2019-03-30T06:58:40.619Z,87.60
2019-03-30T07:01:11.533Z,87.30
2019-03-30T07:03:42.495Z,87.60
2019-03-30T07:06:15.218Z,87.70
2019-03-30T07:08:48.075Z,86.80
2019-03-30T07:11:21.410Z,86.50
2019-03-30T07:13:55.754Z,86.70
2019-03-30T07:16:29.127Z,85.90
2019-03-30T07:19:03.181Z,85.60
2019-03-30T07:21:34.120Z,85.80
2019-03-30T07:24:05.120Z,85.30
2019-03-30T07:26:36.077Z,84.80
2019-03-30T07:29:07.190Z,84.40
2019-03-30T07:31:38.107Z,82.90
2019-03-30T07:34:09.913Z,81.80
2019-03-30T07:36:41.081Z,81.70
2019-03-30T07:39:11.947Z,81.80
2019-03-30T07:41:42.863Z,81.80
2019-03-30T07:44:13.728Z,81.70
2019-03-30T07:46:44.633Z,81.40
2019-03-30T07:49:15.535Z,81.10
2019-03-30T07:51:46.399Z,81.20
2019-03-30T07:54:17.307Z,79.80
2019-03-30T07:56:48.181Z,80.00
2019-03-30T07:59:19.123Z,81.00
2019-03-30T08:01:50.455Z,80.20
2019-03-30T08:04:21.348Z,79.80
2019-03-30T08:06:53.409Z,78.90
2019-03-30T08:09:24.320Z,78.80
2019-03-30T08:11:55.218Z,78.50
2019-03-30T08:14:26.169Z,78.70
2019-03-30T08:16:57.034Z,78.50
2019-03-30T08:19:27.999Z,77.60
2019-03-30T08:21:58.997Z,77.10
2019-03-30T08:24:29.902Z,77.40
2019-03-30T08:27:00.794Z,77.40
2019-03-30T08:29:31.757Z,77.40
2019-03-30T08:32:02.615Z,77.50
2019-03-30T08:34:33.525Z,77.70
2019-03-30T08:37:05.746Z,77.20
2019-03-30T08:39:36.621Z,76.40
2019-03-30T08:42:07.892Z,76.10
2019-03-30T08:44:38.749Z,75.90
2019-03-30T08:47:09.681Z,75.70
2019-03-30T08:49:40.525Z,75.30
2019-03-30T08:52:11.396Z,74.40
2019-03-30T08:54:43.440Z,73.00
2019-03-30T08:57:14.353Z,73.10
2019-03-30T08:59:45.181Z,73.60
2019-03-30T09:02:16.056Z,73.70
2019-03-30T09:04:46.852Z,73.70
2019-03-30T09:07:19.266Z,74.00
2019-03-30T09:09:50.051Z,73.40
2019-03-30T09:12:20.965Z,73.20
2019-03-30T09:14:51.821Z,73.00
2019-03-30T09:17:22.769Z,73.30
2019-03-30T09:19:53.676Z,73.10
2019-03-30T09:22:24.498Z,72.50
2019-03-30T09:24:55.427Z,71.60
2019-03-30T09:27:27.555Z,71.60
2019-03-30T09:29:58.481Z,71.40
2019-03-30T09:32:29.410Z,71.30
2019-03-30T09:35:00.346Z,70.70
2019-03-30T09:37:32.312Z,71.20
2019-03-30T09:40:03.239Z,70.50
2019-03-30T09:42:34.199Z,70.70
2019-03-30T09:45:05.569Z,70.90
2019-03-30T09:47:36.482Z,69.90
2019-03-30T09:50:08.011Z,69.00
2019-03-30T09:52:38.898Z,68.20
2019-03-30T09:55:10.027Z,68.00
2019-03-30T09:57:41.021Z,67.80
2019-03-30T10:00:12.111Z,67.00
2019-03-30T10:02:42.986Z,65.90
2019-03-30T10:05:13.761Z,65.20
2019-03-30T10:07:46.956Z,64.20
2019-03-30T10:10:17.845Z,63.90
2019-03-30T10:12:48.734Z,63.90
2019-03-30T10:15:19.759Z,63.70
2019-03-30T10:17:50.660Z,62.80
2019-03-30T10:20:21.553Z,62.70
2019-03-30T10:22:52.534Z,62.20
2019-03-30T10:25:23.417Z,61.70
2019-03-30T10:27:54.336Z,60.50
2019-03-30T10:30:26.273Z,59.80
2019-03-30T10:32:57.221Z,60.20
2019-03-30T10:35:28.114Z,59.90
2019-03-30T10:37:59.736Z,59.00
2019-03-30T10:40:30.605Z,58.40
2019-03-30T10:43:01.528Z,58.40
2019-03-30T10:45:32.381Z,58.10
2019-03-30T10:48:03.298Z,58.50
2019-03-30T10:50:34.189Z,58.10
2019-03-30T10:53:05.118Z,57.00
2019-03-30T10:55:35.995Z,54.50
2019-03-30T10:58:06.926Z,54.20
2019-03-30T11:00:39.149Z,53.90
2019-03-30T11:03:10.165Z,53.30
2019-03-30T11:05:41.056Z,52.80
2019-03-30T11:08:13.501Z,52.40
2019-03-30T11:10:44.437Z,52.00
2019-03-30T11:13:15.409Z,51.40
2019-03-30T11:15:46.349Z,51.60
2019-03-30T11:18:17.232Z,51.00
2019-03-30T11:20:48.123Z,50.90
2019-03-30T11:23:18.989Z,50.30
2019-03-30T11:25:49.888Z,50.00
2019-03-30T11:28:20.778Z,49.70
2019-03-30T11:30:51.717Z,49.80
2019-03-30T11:33:26.933Z,49.60
2019-03-30T11:36:00.588Z,48.90
2019-03-30T11:38:31.536Z,48.60
2019-03-30T11:41:02.438Z,49.00
2019-03-30T11:43:33.370Z,49.80
2019-03-30T11:46:04.285Z,49.30
2019-03-30T11:48:37.689Z,49.00
2019-03-30T11:51:08.814Z,48.80
2019-03-30T11:53:39.694Z,49.20
2019-03-30T11:56:10.618Z,48.80
2019-03-30T11:58:41.476Z,49.10
2019-03-30T12:01:12.405Z,48.70
2019-03-30T12:03:43.271Z,49.30
2019-03-30T12:06:14.734Z,48.80
2019-03-30T12:08:45.692Z,48.70
2019-03-30T12:11:16.585Z,49.30
2019-03-30T12:13:47.483Z,49.20
2019-03-30T12:16:18.491Z,49.00
2019-03-30T12:18:50.438Z,48.80
2019-03-30T12:21:21.215Z,48.50
2019-03-30T12:23:52.077Z,48.80
2019-03-30T12:26:22.969Z,49.10
2019-03-30T12:28:54.020Z,48.80
2019-03-30T12:31:24.917Z,49.10
2019-03-30T12:33:55.905Z,49.30
2019-03-30T12:36:26.773Z,49.70
2019-03-30T12:38:57.717Z,49.50
2019-03-30T12:41:28.605Z,49.90
2019-03-30T12:43:59.519Z,49.80
2019-03-30T12:46:30.468Z,49.90
2019-03-30T12:49:01.340Z,50.10
2019-03-30T12:51:32.265Z,50.70
2019-03-30T12:54:03.143Z,51.10
2019-03-30T12:56:35.019Z,51.00
2019-03-30T12:59:05.933Z,50.90
2019-03-30T13:01:36.858Z,51.10
2019-03-30T13:04:07.843Z,51.00
2019-03-30T13:06:38.734Z,51.40
2019-03-30T13:09:09.715Z,51.60
2019-03-30T13:11:42.830Z,51.80
2019-03-30T13:14:13.721Z,51.90
2019-03-30T13:16:44.645Z,52.60
2019-03-30T13:19:15.565Z,52.60
2019-03-30T13:21:52.650Z,52.50
2019-03-30T13:24:20.208Z,52.90
2019-03-30T13:26:51.108Z,53.50
2019-03-30T13:29:22.163Z,54.00
2019-03-30T13:31:53.053Z,54.30
2019-03-30T13:34:24.004Z,54.40
2019-03-30T13:36:54.776Z,54.70
2019-03-30T13:39:25.706Z,54.70
2019-03-30T13:41:56.812Z,54.80
2019-03-30T13:44:27.693Z,55.00
2019-03-30T13:46:58.605Z,54.80
2019-03-30T13:49:29.919Z,54.90
2019-03-30T13:52:01.947Z,55.30
2019-03-30T13:54:32.869Z,55.30
2019-03-30T13:57:03.786Z,55.30
2019-03-30T13:59:35.050Z,55.50
2019-03-30T14:02:06.902Z,55.50
2019-03-30T14:04:37.820Z,56.10
2019-03-30T14:07:08.732Z,56.50
2019-03-30T14:09:39.749Z,56.80
2019-03-30T14:12:10.586Z,56.20
2019-03-30T14:14:41.500Z,56.10
2019-03-30T14:17:13.278Z,56.30
2019-03-30T14:19:44.145Z,56.60
2019-03-30T14:22:15.082Z,57.10
2019-03-30T14:24:45.926Z,57.10
2019-03-30T14:27:16.850Z,56.90
2019-03-30T14:29:47.708Z,57.30
2019-03-30T14:32:18.665Z,57.30
2019-03-30T14:34:49.640Z,57.70
2019-03-30T14:37:20.582Z,57.30
2019-03-30T14:40:03.652Z,57.50
2019-03-30T14:42:35.580Z,57.50
2019-03-30T14:45:07.504Z,57.50
2019-03-30T14:47:38.306Z,57.70
2019-03-30T14:50:09.916Z,57.80
2019-03-30T14:52:40.767Z,57.80
2019-03-30T14:55:11.724Z,58.20
2019-03-30T14:57:42.640Z,57.90
2019-03-30T15:00:14.140Z,57.90
2019-03-30T15:02:45.081Z,58.10
2019-03-30T15:05:16.032Z,58.20
2019-03-30T15:07:46.955Z,58.30
2019-03-30T15:10:18.133Z,58.90
2019-03-30T15:12:50.212Z,58.60
2019-03-30T15:15:21.214Z,58.90
2019-03-30T15:17:52.126Z,59.10
2019-03-30T15:20:22.975Z,59.10
2019-03-30T15:22:53.941Z,59.00
2019-03-30T15:25:24.890Z,59.10
2019-03-30T15:27:55.774Z,59.30
2019-03-30T15:30:26.742Z,59.50
2019-03-30T15:32:57.679Z,59.60
2019-03-30T15:35:28.796Z,59.90
2019-03-30T15:37:59.641Z,60.00
2019-03-30T15:40:30.571Z,60.00
2019-03-30T15:43:01.525Z,60.10
2019-03-30T15:45:32.488Z,60.30
2019-03-30T15:48:03.713Z,60.50
2019-03-30T16:02:03.774Z,61.50
2019-03-30T16:04:34.804Z,61.70
2019-03-30T16:07:06.963Z,62.00
2019-03-30T16:09:38.111Z,62.20
2019-03-30T16:12:09.021Z,62.40
2019-03-30T16:14:40.304Z,62.80
2019-03-30T16:17:14.670Z,64.00
2019-03-30T16:19:43.845Z,63.40
2019-03-30T16:22:14.830Z,63.90
2019-03-30T16:24:46.317Z,64.00
2019-03-30T16:27:28.251Z,64.40
2019-03-30T16:29:49.818Z,64.60
2019-03-30T16:32:21.723Z,64.90
2019-03-30T16:34:52.594Z,65.20
2019-03-30T16:37:23.586Z,65.70
2019-03-30T16:39:54.452Z,66.20
2019-03-30T16:42:26.723Z,66.40
2019-03-30T16:44:57.560Z,66.80
2019-03-30T16:47:28.616Z,67.10
2019-03-30T16:49:59.796Z,67.40
2019-03-30T16:52:30.737Z,67.90
2019-03-30T16:55:02.033Z,68.20
2019-03-30T16:57:43.103Z,68.80
2019-03-30T17:00:11.413Z,69.20
2019-03-30T17:02:42.477Z,69.70
2019-03-30T17:05:16.266Z,70.20
2019-03-30T17:07:58.113Z,70.60
2019-03-30T17:10:28.981Z,71.00
2019-03-30T17:13:05.789Z,71.40
2019-03-30T17:15:41.986Z,71.70
2019-03-30T17:18:13.306Z,72.20
2019-03-30T17:20:44.234Z,72.70
2019-03-30T17:23:15.148Z,73.20
2019-03-30T17:25:46.107Z,73.70
2019-03-30T17:28:16.990Z,74.10
2019-03-30T17:30:47.973Z,74.40
2019-03-30T17:33:18.950Z,74.70
2019-03-30T17:35:49.887Z,75.30
2019-03-30T17:38:20.870Z,75.60
2019-03-30T17:40:51.887Z,76.10
2019-03-30T17:43:24.172Z,76.60
2019-03-30T17:45:55.193Z,76.90
2019-03-30T17:48:26.502Z,77.50
2019-03-30T17:50:58.626Z,77.90
2019-03-30T17:53:29.751Z,78.40
2019-03-30T17:56:02.248Z,78.70
2019-03-30T17:58:33.387Z,79.40
2019-03-30T18:01:04.430Z,80.10
2019-03-30T18:03:35.610Z,80.50
2019-03-30T18:06:06.689Z,81.00
2019-03-30T18:08:37.565Z,82.00
2019-03-30T18:11:08.784Z,81.80
2019-03-30T18:13:41.476Z,82.40
2019-03-30T18:16:12.903Z,82.60
2019-03-30T18:18:45.052Z,83.20
2019-03-30T18:21:16.118Z,83.60
2019-03-30T18:23:47.561Z,84.10
2019-03-30T18:26:19.766Z,84.50
2019-03-30T18:28:50.602Z,85.00
2019-03-30T18:31:23.829Z,85.40
2019-03-30T18:33:55.204Z,85.60
2019-03-30T18:36:28.884Z,85.90
2019-03-30T18:39:09.280Z,86.40
2019-03-30T18:41:34.244Z,86.90
2019-03-30T18:44:06.568Z,87.10
2019-03-30T18:46:37.602Z,87.50
2019-03-30T18:49:09.502Z,87.70
2019-03-30T18:51:42.842Z,88.00
2019-03-30T18:54:14.928Z,88.20
2019-03-30T18:56:46.904Z,88.50
2019-03-30T18:59:18.770Z,88.80
2019-03-30T19:01:49.654Z,89.30
2019-03-30T19:04:20.565Z,89.60
2019-03-30T19:06:51.440Z,89.70
2019-03-30T19:09:22.350Z,89.80
2019-03-30T19:11:53.256Z,90.00
2019-03-30T19:14:25.800Z,90.10
2019-03-30T19:16:56.762Z,90.20
2019-03-30T19:19:27.712Z,90.30
2019-03-30T19:21:58.631Z,90.40
2019-03-30T19:24:29.505Z,90.50
2019-03-30T19:27:00.432Z,90.70
2019-03-30T19:29:31.456Z,90.70
2019-03-30T19:32:05.455Z,90.70
2019-03-30T19:34:38.020Z,90.90
2019-03-30T19:37:08.947Z,91.00
2019-03-30T19:39:39.833Z,91.10
2019-03-30T19:42:10.797Z,91.20
2019-03-30T19:44:42.183Z,91.30
2019-03-30T19:47:13.128Z,91.30
2019-03-30T19:49:44.061Z,91.30
2019-03-30T19:52:14.950Z,91.30
2019-03-30T19:54:45.857Z,91.40
2019-03-30T19:57:16.772Z,91.50
2019-03-30T19:59:47.661Z,91.50
2019-03-30T20:02:18.574Z,91.60
2019-03-30T20:04:49.499Z,91.70
2019-03-30T20:07:20.548Z,91.80
2019-03-30T20:09:51.564Z,91.90
2019-03-30T20:12:22.591Z,91.90
2019-03-30T20:14:53.456Z,91.90
2019-03-30T20:17:24.378Z,92.00
2019-03-30T20:19:55.242Z,91.90
2019-03-30T20:22:26.158Z,91.90
2019-03-30T20:24:57.064Z,91.90
2019-03-30T20:27:28.019Z,91.80
2019-03-30T20:29:58.894Z,91.80
2019-03-30T20:32:29.942Z,91.80
2019-03-30T20:35:00.848Z,91.70
2019-03-30T20:37:31.841Z,91.70
2019-03-30T20:40:02.706Z,91.70
2019-03-30T20:42:34.644Z,91.70
2019-03-30T20:45:07.415Z,91.60
2019-03-30T20:47:38.462Z,91.60
2019-03-30T20:50:10.958Z,91.90
2019-03-30T20:52:41.823Z,91.60
2019-03-30T20:55:12.857Z,91.60
2019-03-30T20:57:43.719Z,91.60
2019-03-30T21:00:15.472Z,91.70
2019-03-30T21:02:46.618Z,91.70
2019-03-30T21:05:17.463Z,91.70
2019-03-30T21:07:48.384Z,91.80
2019-03-30T21:10:19.298Z,91.80
2019-03-30T21:12:50.198Z,91.80
2019-03-30T21:15:22.271Z,91.90
2019-03-30T21:17:53.676Z,92.00
2019-03-30T21:20:24.580Z,92.00
2019-03-30T21:22:55.507Z,92.10
2019-03-30T21:25:27.618Z,92.10
2019-03-30T21:27:58.589Z,92.20
2019-03-30T21:30:29.512Z,92.20
2019-03-30T21:33:00.385Z,92.30
2019-03-30T21:35:31.972Z,92.60
2019-03-30T21:38:02.900Z,92.40
2019-03-30T21:40:33.814Z,92.40
2019-03-30T21:43:04.826Z,92.50
2019-03-30T21:45:36.156Z,92.50
2019-03-30T21:48:07.130Z,92.50
2019-03-30T21:50:38.126Z,92.50
2019-03-30T21:53:09.093Z,92.60
2019-03-30T21:55:40.110Z,92.60
2019-03-30T21:58:11.017Z,92.70
2019-03-30T22:00:41.925Z,92.70
2019-03-30T22:03:12.916Z,92.70
2019-03-30T22:05:44.144Z,92.80
2019-03-30T22:08:17.312Z,92.80
2019-03-30T22:10:48.539Z,92.80
2019-03-30T22:13:21.487Z,92.80
2019-03-30T22:15:52.355Z,93.20
2019-03-30T22:18:23.297Z,92.90
2019-03-30T22:20:54.117Z,92.90
2019-03-30T22:23:25.016Z,92.90
2019-03-30T22:25:55.845Z,92.90
2019-03-30T22:28:26.801Z,93.00
2019-03-30T22:30:57.764Z,93.00
2019-03-30T22:33:30.783Z,93.00
2019-03-30T22:36:01.179Z,93.00
2019-03-30T22:38:32.122Z,93.10
2019-03-30T22:41:03.025Z,93.10
2019-03-30T22:43:33.902Z,93.10
2019-03-30T22:46:07.564Z,93.20
2019-03-30T22:48:37.331Z,93.20
2019-03-30T22:51:08.320Z,93.30
2019-03-30T22:53:39.217Z,93.40
2019-03-30T22:56:10.151Z,93.40
2019-03-30T22:58:41.012Z,93.50
2019-03-30T23:01:14.463Z,93.50
2019-03-30T23:03:46.999Z,93.50
2019-03-30T23:06:18.372Z,93.50
2019-03-30T23:08:50.380Z,93.50
2019-03-30T23:11:21.247Z,93.60
2019-03-30T23:13:52.140Z,93.60
2019-03-30T23:16:23.549Z,93.60
2019-03-30T23:18:54.469Z,93.60
2019-03-30T23:21:25.439Z,93.70
2019-03-30T23:23:56.271Z,93.70
2019-03-30T23:26:27.200Z,93.70
2019-03-30T23:28:59.637Z,93.70
2019-03-30T23:31:30.598Z,93.80
2019-03-30T23:34:02.540Z,93.80
2019-03-30T23:36:33.511Z,93.90
2019-03-30T23:39:06.727Z,93.90
2019-03-30T23:41:37.609Z,93.90
2019-03-30T23:44:08.504Z,94.00
2019-03-30T23:46:39.348Z,94.00
2019-03-30T23:49:10.240Z,94.00
2019-03-30T23:51:41.161Z,94.00
2019-03-30T23:54:15.805Z,94.00
2019-03-30T23:56:46.774Z,94.00
2019-03-30T23:59:17.845Z,94.00
